Time;durP1;ratioP1;P1;durP2;ratioP2;P2;SDS_P1;SDS_P2;PMS_P1;PMS_P2;Temp;Humidity;BMP_temperature;BMP_pressure;BME280_temperature;BME280_humidity;BME280_pressure;Samples;Min_cycle;Max_cycle;Signal;HPM_P1;HPM_P2
2021/01/17 00:01:57;;;;;;;22.63;20.07;;;-0.90;99.90;;;;;;5046389;28;20654;-93
2021/01/17 00:04:23;;;;;;;21.73;18.70;;;-0.90;99.90;;;;;;5047700;28;20667;-93
2021/01/17 00:06:56;;;;;;;23.10;20.80;;;-1.00;99.90;;;;;;5047472;28;20689;-92
2021/01/17 00:09:25;;;;;;;21.60;19.50;;;-0.90;99.90;;;;;;5047613;28;21343;-92
2021/01/17 00:11:52;;;;;;;25.43;22.67;;;-0.70;99.90;;;;;;5047923;28;20702;-93
2021/01/17 00:14:19;;;;;;;23.20;20.03;;;-0.80;99.90;;;;;;5046060;28;20672;-92
2021/01/17 00:16:45;;;;;;;21.23;19.00;;;-0.80;99.90;;;;;;5041717;28;20648;-91
2021/01/17 00:19:12;;;;;;;23.90;21.30;;;-0.80;99.90;;;;;;5042309;28;20637;-91
2021/01/17 00:21:43;;;;;;;23.30;20.87;;;-1.00;99.90;;;;;;5039971;28;20689;-91
2021/01/17 00:24:10;;;;;;;23.90;21.40;;;-0.80;99.90;;;;;;5042809;28;20655;-91
2021/01/17 00:26:37;;;;;;;23.63;21.13;;;-0.90;99.90;;;;;;5040625;28;21004;-91
2021/01/17 00:29:05;;;;;;;24.90;22.37;;;-0.90;99.90;;;;;;5039140;28;20684;-91
2021/01/17 00:31:34;;;;;;;27.50;24.60;;;-0.90;99.90;;;;;;5043483;28;20675;-91
2021/01/17 00:34:02;;;;;;;39.73;30.50;;;-0.90;99.90;;;;;;5046870;28;20707;-91
2021/01/17 00:36:28;;;;;;;39.30;30.07;;;-1.00;99.90;;;;;;5056344;28;20636;-91
2021/01/17 00:38:56;;;;;;;39.43;30.23;;;-1.00;99.90;;;;;;5048511;28;20628;-90
2021/01/17 00:41:29;;;;;;;36.03;28.80;;;-1.00;99.90;;;;;;5046622;28;20668;-93
2021/01/17 00:43:56;;;;;;;38.03;30.10;;;-1.00;99.90;;;;;;5048088;28;20648;-92
2021/01/17 00:46:25;;;;;;;25.37;22.67;;;-1.00;99.90;;;;;;5047878;28;21178;-92
2021/01/17 00:48:52;;;;;;;28.37;25.27;;;-1.10;99.90;;;;;;5045783;28;20934;-92
2021/01/17 00:51:19;;;;;;;28.67;24.63;;;-1.10;99.90;;;;;;5048802;28;22033;-92
2021/01/17 00:53:46;;;;;;;38.27;29.90;;;-1.30;99.90;;;;;;5048856;28;20631;-94
2021/01/17 00:56:12;;;;;;;31.90;25.10;;;-1.40;99.90;;;;;;5048724;28;20640;-92
2021/01/17 00:58:39;;;;;;;34.63;27.23;;;-1.20;99.90;;;;;;5050570;28;21011;-95
2021/01/17 01:01:06;;;;;;;31.60;26.57;;;-1.10;99.90;;;;;;5052802;28;20667;-92
2021/01/17 01:03:33;;;;;;;33.10;26.23;;;-1.20;99.90;;;;;;5045816;28;20641;-92
2021/01/17 01:06:00;;;;;;;33.60;28.23;;;-1.20;99.90;;;;;;5046902;28;20651;-92
2021/01/17 01:08:26;;;;;;;29.50;26.30;;;-1.40;99.90;;;;;;5047101;28;21187;-92
2021/01/17 01:10:52;;;;;;;34.17;29.57;;;-1.20;99.90;;;;;;5045918;28;20776;-92
2021/01/17 01:13:19;;;;;;;31.27;25.83;;;-1.20;99.90;;;;;;5048695;28;20716;-92
2021/01/17 01:15:45;;;;;;;30.30;26.80;;;-1.20;99.90;;;;;;5047472;28;20631;-92
2021/01/17 01:18:11;;;;;;;25.97;23.30;;;-1.20;99.90;;;;;;5046600;28;20639;-93
2021/01/17 01:20:41;;;;;;;24.37;21.83;;;-1.10;99.90;;;;;;5040977;28;20664;-91
2021/01/17 01:23:08;;;;;;;24.57;22.07;;;-1.10;99.90;;;;;;5044662;28;20635;-90
2021/01/17 01:25:34;;;;;;;24.07;20.37;;;-1.20;99.90;;;;;;5037200;28;20702;-91
2021/01/17 01:28:01;;;;;;;26.40;22.73;;;-1.10;99.90;;;;;;5047063;28;20644;-90
2021/01/17 01:30:27;;;;;;;26.00;22.57;;;-1.20;99.90;;;;;;5047635;28;21231;-90
2021/01/17 01:32:54;;;;;;;23.23;20.83;;;-1.20;99.90;;;;;;5043064;28;20655;-91
2021/01/17 01:35:21;;;;;;;24.20;21.60;;;-1.20;99.90;;;;;;5046991;28;20634;-91
2021/01/17 01:37:48;;;;;;;25.57;22.70;;;-1.30;99.90;;;;;;5045410;28;20693;-91
2021/01/17 01:40:14;;;;;;;22.47;20.10;;;-1.00;99.90;;;;;;5045946;28;20693;-90
2021/01/17 01:42:42;;;;;;;23.53;21.10;;;-0.90;99.90;;;;;;5042878;28;20698;-90
2021/01/17 01:45:10;;;;;;;26.70;21.87;;;-0.90;99.90;;;;;;5047109;28;21248;-90
2021/01/17 01:47:37;;;;;;;22.87;20.50;;;-0.90;99.90;;;;;;5046099;28;20638;-90
2021/01/17 01:50:05;;;;;;;23.37;20.87;;;-0.90;99.90;;;;;;5044429;28;21021;-91
2021/01/17 01:52:32;;;;;;;25.00;22.30;;;-0.90;99.90;;;;;;5045003;28;20649;-90
2021/01/17 01:54:59;;;;;;;23.23;20.73;;;-1.00;99.90;;;;;;5047604;28;20632;-91
2021/01/17 01:57:25;;;;;;;22.60;20.20;;;-0.90;99.90;;;;;;5042551;28;20639;-91
2021/01/17 01:59:52;;;;;;;23.20;20.70;;;-0.80;99.90;;;;;;5047645;28;20668;-92
2021/01/17 02:02:18;;;;;;;22.50;20.13;;;-0.90;99.90;;;;;;5041199;28;20683;-92
2021/01/17 02:04:45;;;;;;;24.17;21.57;;;-0.80;99.90;;;;;;5044152;28;20635;-90
2021/01/17 02:07:41;;;;;;;24.23;21.53;;;-0.80;99.90;;;;;;5045715;28;20656;-91
2021/01/17 02:10:09;;;;;;;23.20;20.70;;;-0.90;99.90;;;;;;5028224;28;20684;-92
2021/01/17 02:12:44;;;;;;;23.87;21.40;;;-0.90;99.90;;;;;;5040750;28;20736;-91
2021/01/17 02:15:21;;;;;;;22.53;20.33;;;-0.80;99.90;;;;;;5045650;28;20626;-92
2021/01/17 02:17:49;;;;;;;23.20;20.63;;;-0.70;99.90;;;;;;5045402;28;20640;-93
2021/01/17 02:20:17;;;;;;;25.53;22.43;;;-0.80;99.90;;;;;;5046566;28;20643;-92
2021/01/17 02:23:03;;;;;;;24.90;21.87;;;-0.90;99.90;;;;;;5041750;28;20999;-92
2021/01/17 02:25:32;;;;;;;23.60;21.30;;;-0.90;99.90;;;;;;5044729;28;20659;-91
2021/01/17 02:28:01;;;;;;;25.23;22.53;;;-0.90;99.90;;;;;;5045931;28;20649;-92
2021/01/17 02:30:31;;;;;;;23.37;20.87;;;-0.90;99.90;;;;;;5044215;28;20681;-92
2021/01/17 02:33:00;;;;;;;24.93;22.27;;;-0.80;99.90;;;;;;5042928;28;20636;-91
2021/01/17 02:35:29;;;;;;;25.87;23.13;;;-0.90;99.90;;;;;;5048281;28;20644;-91
2021/01/17 02:38:10;;;;;;;24.37;21.77;;;-0.90;99.90;;;;;;5042017;28;20643;-92
2021/01/17 02:40:48;;;;;;;24.23;21.67;;;-0.90;99.90;;;;;;5046772;28;20670;-91
2021/01/17 02:43:15;;;;;;;24.53;21.93;;;-0.80;99.90;;;;;;5047879;28;20654;-92
2021/01/17 02:45:43;;;;;;;24.47;21.87;;;-0.80;99.90;;;;;;5042622;28;21010;-91
2021/01/17 02:48:10;;;;;;;27.13;22.90;;;-0.90;99.90;;;;;;5044709;28;20639;-90
2021/01/17 02:50:37;;;;;;;24.70;21.87;;;-0.80;99.90;;;;;;5048266;28;20705;-92
2021/01/17 02:53:10;;;;;;;24.87;22.17;;;-0.80;99.90;;;;;;5042497;28;20701;-90
2021/01/17 02:55:39;;;;;;;25.70;23.00;;;-0.70;99.90;;;;;;5045914;28;20648;-91
2021/01/17 02:58:09;;;;;;;26.73;24.13;;;-0.70;99.90;;;;;;5045203;28;20983;-93
2021/01/17 03:00:40;;;;;;;24.53;21.87;;;-0.80;99.90;;;;;;5046234;28;20662;-92
2021/01/17 03:03:08;;;;;;;25.73;23.00;;;-0.80;99.90;;;;;;5044630;28;20648;-90
2021/01/17 03:05:36;;;;;;;26.53;23.50;;;-0.70;99.90;;;;;;5045644;28;21102;-93
2021/01/17 03:08:05;;;;;;;26.50;23.77;;;-0.70;99.90;;;;;;5045719;28;20640;-90
2021/01/17 03:10:31;;;;;;;26.03;23.37;;;-0.70;99.90;;;;;;5041453;28;20730;-91
2021/01/17 03:13:00;;;;;;;28.33;25.23;;;-0.80;99.90;;;;;;5040283;28;20736;-91
2021/01/17 03:15:31;;;;;;;26.37;23.57;;;-0.70;99.90;;;;;;5039699;28;20685;-90
2021/01/17 03:17:57;;;;;;;28.50;25.47;;;-0.70;99.90;;;;;;5045435;28;20633;-90
2021/01/17 03:20:24;;;;;;;27.47;24.40;;;-0.70;99.90;;;;;;5046726;28;21298;-91
2021/01/17 03:22:50;;;;;;;26.57;23.10;;;-0.80;99.90;;;;;;5042360;28;20646;-91
2021/01/17 03:25:16;;;;;;;27.27;24.30;;;-0.80;99.90;;;;;;5046230;28;20663;-91
2021/01/17 03:27:43;;;;;;;24.37;21.73;;;-0.80;99.90;;;;;;5048883;28;20657;-92
2021/01/17 03:30:11;;;;;;;28.80;24.07;;;-0.70;99.90;;;;;;5046974;28;20680;-92
2021/01/17 03:32:38;;;;;;;24.07;21.67;;;-0.80;99.90;;;;;;5041266;28;21125;-90
2021/01/17 03:35:05;;;;;;;25.10;21.70;;;-0.80;99.90;;;;;;5046475;28;20641;-90
2021/01/17 03:37:32;;;;;;;22.80;19.80;;;-0.80;99.90;;;;;;5043447;28;20620;-90
2021/01/17 03:39:59;;;;;;;22.37;19.97;;;-0.80;99.90;;;;;;5043212;28;20730;-90
2021/01/17 03:42:25;;;;;;;24.10;21.20;;;-0.80;99.90;;;;;;5043504;28;21105;-92
2021/01/17 03:44:51;;;;;;;24.37;21.77;;;-0.90;99.90;;;;;;5042064;28;20655;-90
2021/01/17 03:47:18;;;;;;;24.60;22.00;;;-1.10;99.90;;;;;;5044108;28;20632;-91
2021/01/17 03:49:45;;;;;;;25.93;21.07;;;-1.10;99.90;;;;;;5049381;28;20687;-93
2021/01/17 03:52:11;;;;;;;23.33;20.87;;;-1.00;99.90;;;;;;5042708;28;20941;-93
2021/01/17 03:54:38;;;;;;;22.63;20.23;;;-0.90;99.90;;;;;;5044258;28;20651;-92
2021/01/17 03:57:05;;;;;;;26.13;23.40;;;-1.00;99.90;;;;;;5042664;28;20629;-91
2021/01/17 03:59:33;;;;;;;24.70;21.93;;;-1.00;99.90;;;;;;5045354;28;20767;-92
2021/01/17 04:02:01;;;;;;;25.77;22.70;;;-0.90;99.90;;;;;;5041477;28;21032;-92
2021/01/17 04:04:28;;;;;;;25.97;23.10;;;-0.80;99.90;;;;;;5045521;28;20708;-92
2021/01/17 04:06:55;;;;;;;23.83;21.30;;;-0.80;99.90;;;;;;5053265;28;21088;-92
2021/01/17 04:09:22;;;;;;;25.20;22.60;;;-0.90;99.90;;;;;;5052568;28;21003;-92
2021/01/17 04:11:50;;;;;;;25.87;23.03;;;-0.80;99.90;;;;;;5042591;28;20633;-92
2021/01/17 04:14:16;;;;;;;26.23;22.30;;;-0.60;99.90;;;;;;5046045;28;20625;-92
2021/01/17 04:16:49;;;;;;;26.77;23.40;;;-0.60;99.90;;;;;;5042513;28;20643;-92
2021/01/17 04:19:15;;;;;;;23.83;21.30;;;-0.70;99.90;;;;;;5039433;28;20633;-92
2021/01/17 04:21:42;;;;;;;23.97;21.47;;;-0.70;99.90;;;;;;5042890;28;20788;-93
2021/01/17 04:24:09;;;;;;;23.40;21.00;;;-0.80;99.90;;;;;;5044025;28;20636;-93
2021/01/17 04:26:36;;;;;;;26.83;23.93;;;-0.70;99.90;;;;;;5046717;28;21284;-92
2021/01/17 04:29:02;;;;;;;26.63;23.77;;;-0.90;99.90;;;;;;5048120;28;20709;-92
2021/01/17 04:31:38;;;;;;;25.10;22.40;;;-1.00;99.90;;;;;;5044738;28;20672;-91
2021/01/17 04:34:05;;;;;;;28.87;25.80;;;-0.90;99.90;;;;;;5046193;28;20624;-92
2021/01/17 04:36:39;;;;;;;25.73;23.17;;;-0.90;99.90;;;;;;5045398;28;20664;-91
2021/01/17 04:39:07;;;;;;;28.50;25.50;;;-1.00;99.90;;;;;;5047159;28;20632;-92
2021/01/17 04:41:36;;;;;;;29.67;25.20;;;-0.80;99.90;;;;;;5045848;28;20675;-91
2021/01/17 04:44:05;;;;;;;28.63;24.97;;;-0.90;99.90;;;;;;5046653;28;20644;-90
2021/01/17 04:46:32;;;;;;;30.70;25.50;;;-0.90;99.90;;;;;;5047783;28;20639;-95
2021/01/17 04:49:00;;;;;;;30.10;25.57;;;-0.90;99.90;;;;;;5052062;28;21261;-93
2021/01/17 04:51:28;;;;;;;32.47;27.30;;;-0.90;99.90;;;;;;5051434;28;21185;-94
2021/01/17 04:53:55;;;;;;;29.00;26.00;;;-0.80;99.90;;;;;;5050106;28;20660;-93
2021/01/17 04:56:26;;;;;;;29.53;25.97;;;-0.80;99.90;;;;;;5047413;28;20655;-93
2021/01/17 04:59:10;;;;;;;29.77;25.60;;;-0.80;99.90;;;;;;5044112;28;20691;-92
2021/01/17 05:01:50;;;;;;;29.00;25.67;;;-0.90;99.90;;;;;;5044722;28;20683;-92
2021/01/17 05:04:34;;;;;;;29.63;25.53;;;-0.90;99.90;;;;;;5045071;28;20647;-92
2021/01/17 05:07:07;;;;;;;27.73;24.73;;;-0.80;99.90;;;;;;5047560;28;20620;-92
2021/01/17 05:09:38;;;;;;;32.30;25.90;;;-0.80;99.90;;;;;;5049923;28;20679;-93
2021/01/17 05:12:11;;;;;;;28.60;25.37;;;-0.80;99.90;;;;;;5046659;28;20651;-92
2021/01/17 05:14:42;;;;;;;29.27;26.10;;;-0.80;99.90;;;;;;5045380;28;20619;-93
2021/01/17 05:17:09;;;;;;;26.73;23.83;;;-0.80;99.90;;;;;;5047678;28;20796;-92
2021/01/17 05:19:38;;;;;;;26.17;23.43;;;-0.70;99.90;;;;;;5048129;28;20662;-93
2021/01/17 05:22:05;;;;;;;27.83;24.80;;;-0.70;99.90;;;;;;5047091;28;20643;-92
2021/01/17 05:24:32;;;;;;;27.13;24.23;;;-0.70;99.90;;;;;;5048078;28;21182;-93
2021/01/17 05:27:00;;;;;;;34.07;24.83;;;-0.70;99.90;;;;;;5045163;28;20666;-93
2021/01/17 05:29:28;;;;;;;28.40;24.70;;;-0.60;99.90;;;;;;5045329;28;20664;-93
2021/01/17 05:31:57;;;;;;;31.87;26.30;;;-0.50;99.90;;;;;;5042873;28;20645;-92
2021/01/17 05:34:24;;;;;;;33.17;29.07;;;-0.70;99.90;;;;;;5044560;28;20648;-92
2021/01/17 05:37:02;;;;;;;30.30;26.83;;;-0.50;99.90;;;;;;5043314;28;20651;-93
2021/01/17 05:39:29;;;;;;;30.33;27.03;;;-0.70;99.90;;;;;;5043793;28;21126;-93
2021/01/17 05:42:05;;;;;;;33.83;28.10;;;-0.60;99.90;;;;;;5048026;28;20994;-93
2021/01/17 05:44:32;;;;;;;27.87;24.17;;;-0.50;99.90;;;;;;5044417;28;20652;-92
2021/01/17 05:47:04;;;;;;;28.40;24.80;;;-0.60;99.90;;;;;;5048072;28;20617;-92
2021/01/17 05:49:30;;;;;;;31.53;27.57;;;-0.50;99.90;;;;;;5046244;28;20681;-92
2021/01/17 05:52:10;;;;;;;32.30;25.03;;;-0.60;99.90;;;;;;5045696;28;20648;-92
2021/01/17 05:54:37;;;;;;;29.73;26.23;;;-0.70;99.90;;;;;;5040388;28;21338;-92
2021/01/17 05:57:14;;;;;;;27.50;24.17;;;0.10;99.90;;;;;;5046793;28;20649;-92
2021/01/17 05:59:40;;;;;;;28.40;25.20;;;-0.60;99.90;;;;;;5041782;28;21029;-92
2021/01/17 06:02:13;;;;;;;27.47;24.57;;;-0.40;99.90;;;;;;5041627;28;20639;-92
2021/01/17 06:04:42;;;;;;;29.90;26.70;;;-0.50;99.90;;;;;;5039229;28;20641;-92
2021/01/17 06:07:09;;;;;;;30.67;27.00;;;-0.40;99.90;;;;;;5042595;28;20729;-93
2021/01/17 06:09:38;;;;;;;27.60;24.67;;;-0.50;99.90;;;;;;5047014;28;20694;-93
2021/01/17 06:12:05;;;;;;;30.57;26.73;;;-0.50;99.90;;;;;;5044715;28;21137;-92
2021/01/17 06:14:33;;;;;;;31.50;25.83;;;-0.40;99.90;;;;;;5038692;28;20963;-93
2021/01/17 06:17:01;;;;;;;33.27;26.27;;;-0.50;99.90;;;;;;5043667;28;20652;-94
2021/01/17 06:19:37;;;;;;;30.70;27.00;;;-0.50;99.90;;;;;;5046325;28;20633;-94
2021/01/17 06:22:05;;;;;;;37.63;30.57;;;-0.40;99.90;;;;;;5041959;28;20639;-93
2021/01/17 06:24:36;;;;;;;30.80;27.00;;;-0.50;99.90;;;;;;5040346;28;20669;-93
2021/01/17 06:27:03;;;;;;;30.00;26.73;;;-0.40;99.90;;;;;;5040211;28;20684;-93
2021/01/17 06:29:39;;;;;;;31.37;27.67;;;-0.50;99.90;;;;;;5043859;28;20672;-94
2021/01/17 06:32:12;;;;;;;32.53;27.77;;;-0.50;99.90;;;;;;5041553;28;20656;-94
2021/01/17 06:34:44;;;;;;;31.27;27.97;;;-0.50;99.90;;;;;;5041747;28;20648;-92
2021/01/17 06:37:12;;;;;;;29.17;25.90;;;-0.50;99.90;;;;;;5047403;28;21198;-92
2021/01/17 06:39:43;;;;;;;28.87;25.77;;;-0.40;99.90;;;;;;5044959;28;20695;-93
2021/01/17 06:42:11;;;;;;;28.47;25.37;;;-0.40;99.90;;;;;;5042176;28;20638;-94
2021/01/17 06:44:38;;;;;;;32.10;25.77;;;-0.50;99.90;;;;;;5040596;28;20759;-93
2021/01/17 06:47:06;;;;;;;30.37;26.73;;;-0.50;99.90;;;;;;5038519;28;20689;-94
2021/01/17 06:49:33;;;;;;;31.93;25.80;;;-0.50;99.90;;;;;;5037930;28;20773;-94
2021/01/17 06:52:04;;;;;;;33.20;27.30;;;-0.40;99.90;;;;;;5039965;28;21210;-91
2021/01/17 06:54:53;;;;;;;29.00;25.90;;;-0.50;99.90;;;;;;5042454;28;20633;-93
2021/01/17 06:57:21;;;;;;;31.70;26.70;;;-0.20;99.90;;;;;;5043401;28;20729;-92
2021/01/17 06:59:48;;;;;;;30.83;26.83;;;-0.40;99.90;;;;;;5044422;28;20673;-91
2021/01/17 07:02:38;;;;;;;29.47;26.10;;;-0.50;99.90;;;;;;5047667;28;20633;-90
2021/01/17 07:14:15;;;;;;;29.90;25.77;;;-0.50;99.90;;;;;;5015900;28;20659;-96
2021/01/17 07:16:48;;;;;;;31.93;28.43;;;-0.50;99.90;;;;;;5010508;28;20641;-96
2021/01/17 07:19:33;;;;;;;31.60;27.03;;;-0.40;99.90;;;;;;5017769;28;20698;-96
2021/01/17 07:22:07;;;;;;;34.23;29.83;;;0.20;99.90;;;;;;5014545;28;20769;-94
2021/01/17 07:24:35;;;;;;;33.53;29.93;;;-0.40;99.90;;;;;;5004228;28;20679;-94
2021/01/17 07:27:20;;;;;;;33.60;29.30;;;-0.40;99.90;;;;;;4994988;28;21143;-94
2021/01/17 07:29:59;;;;;;;34.63;30.97;;;-0.30;99.90;;;;;;4998344;28;20822;-94
2021/01/17 07:32:33;;;;;;;28.93;25.73;;;-0.40;99.90;;;;;;4976355;28;20647;-92
2021/01/17 07:35:09;;;;;;;30.80;26.60;;;-0.30;99.90;;;;;;5005177;28;20664;-94
2021/01/17 07:37:41;;;;;;;31.20;27.80;;;-0.30;99.90;;;;;;4978393;28;21685;-93
2021/01/17 07:40:09;;;;;;;30.93;27.50;;;-0.40;99.90;;;;;;4977411;28;20636;-94
2021/01/17 07:42:37;;;;;;;30.63;26.97;;;-0.30;99.90;;;;;;5009272;28;20641;-90
2021/01/17 07:45:17;;;;;;;32.27;28.63;;;-0.30;99.90;;;;;;5006026;28;20682;-90
2021/01/17 07:47:46;;;;;;;32.30;26.80;;;-0.30;99.90;;;;;;5001847;28;20643;-90
2021/01/17 07:50:14;;;;;;;35.17;30.53;;;-0.30;99.90;;;;;;5018973;28;20747;-91
2021/01/17 07:52:49;;;;;;;33.87;30.00;;;-0.20;99.90;;;;;;4989485;28;20640;-90
2021/01/17 07:55:21;;;;;;;33.53;29.93;;;-0.30;99.90;;;;;;4998404;28;20655;-93
2021/01/17 07:57:50;;;;;;;32.47;28.97;;;-0.30;99.90;;;;;;4999218;28;20643;-93
2021/01/17 08:00:27;;;;;;;33.27;29.67;;;-0.40;99.90;;;;;;4998031;28;20673;-93
2021/01/17 08:02:54;;;;;;;38.10;30.43;;;-0.30;99.90;;;;;;4995728;28;20654;-92
2021/01/17 08:05:48;;;;;;;40.73;35.07;;;-0.20;99.90;;;;;;4997433;28;20710;-91
2021/01/17 08:08:47;;;;;;;41.93;32.47;;;-0.20;99.90;;;;;;4997959;28;20722;-91
2021/01/17 08:11:40;;;;;;;39.43;31.87;;;-0.10;99.90;;;;;;4981931;28;20761;-91
2021/01/17 08:14:27;;;;;;;38.73;32.83;;;0.00;99.90;;;;;;5007884;28;20643;-91
2021/01/17 08:17:11;;;;;;;40.13;33.93;;;0.00;99.90;;;;;;4982898;28;20639;-92
2021/01/17 08:19:44;;;;;;;42.40;34.63;;;0.00;99.90;;;;;;5002065;28;20637;-91
2021/01/17 08:22:47;;;;;;;41.63;36.43;;;0.10;99.90;;;;;;5004538;28;20662;-91
2021/01/17 08:26:03;;;;;;;34.87;31.03;;;0.10;99.90;;;;;;4982853;28;20663;-92
2021/01/17 08:28:46;;;;;;;35.80;28.93;;;0.10;99.90;;;;;;4997844;28;21236;-91
2021/01/17 08:31:42;;;;;;;29.80;26.60;;;-0.10;99.90;;;;;;4993471;28;20737;-92
2021/01/17 08:34:13;;;;;;;31.97;28.00;;;0.10;99.90;;;;;;4998240;28;20639;-91
2021/01/17 08:36:43;;;;;;;32.47;27.63;;;0.20;99.90;;;;;;4996278;28;20642;-92
2021/01/17 08:39:11;;;;;;;38.20;29.37;;;0.30;99.90;;;;;;4977338;28;20666;-92
2021/01/17 08:41:41;;;;;;;31.63;28.33;;;0.30;99.90;;;;;;4994708;28;20648;-89
2021/01/17 08:44:08;;;;;;;35.77;29.50;;;0.30;99.90;;;;;;4979175;28;20646;-91
2021/01/17 08:46:36;;;;;;;38.90;29.60;;;0.30;99.90;;;;;;4994594;28;20695;-92
2021/01/17 08:49:05;;;;;;;33.60;28.27;;;0.50;99.90;;;;;;4996569;28;21018;-92
2021/01/17 08:51:35;;;;;;;36.07;31.93;;;0.50;99.90;;;;;;4979661;28;20653;-93
2021/01/17 08:54:25;;;;;;;37.37;30.67;;;0.60;99.90;;;;;;4998033;28;20648;-92
2021/01/17 08:56:54;;;;;;;35.00;29.30;;;0.80;99.90;;;;;;4981095;28;20657;-91
2021/01/17 08:59:36;;;;;;;35.00;26.73;;;0.80;99.90;;;;;;4999111;28;20636;-91
2021/01/17 09:02:03;;;;;;;35.73;30.90;;;0.70;99.90;;;;;;4996564;28;20706;-92
2021/01/17 09:04:32;;;;;;;38.30;30.17;;;0.70;99.90;;;;;;4982735;28;21032;-91
2021/01/17 09:07:00;;;;;;;37.70;29.33;;;0.90;99.90;;;;;;5000846;28;20669;-92
2021/01/17 09:09:27;;;;;;;34.67;30.93;;;1.00;99.90;;;;;;4973607;28;20680;-92
2021/01/17 09:11:53;;;;;;;31.77;27.67;;;0.90;99.90;;;;;;4995044;28;20666;-90
2021/01/17 09:14:31;;;;;;;33.57;28.23;;;1.00;99.90;;;;;;5124742;22;21769;-92
2021/01/17 09:17:12;;;;;;;34.60;30.00;;;0.80;99.90;;;;;;5044100;28;20633;-91
2021/01/17 09:19:39;;;;;;;35.27;29.70;;;0.70;99.90;;;;;;5046413;28;20625;-92
2021/01/17 09:22:11;;;;;;;34.20;28.63;;;0.70;99.90;;;;;;5052534;28;20710;-93
2021/01/17 09:24:46;;;;;;;30.50;27.30;;;0.80;99.90;;;;;;5038393;28;20681;-91
2021/01/17 09:27:14;;;;;;;31.03;27.23;;;0.90;99.90;;;;;;5037696;28;20674;-91
2021/01/17 09:29:41;;;;;;;33.80;27.63;;;1.00;99.90;;;;;;5037031;28;20671;-91
2021/01/17 09:32:10;;;;;;;33.30;28.40;;;1.10;99.90;;;;;;5035201;28;20671;-93
2021/01/17 09:34:41;;;;;;;32.00;27.90;;;1.20;99.90;;;;;;5032014;28;20651;-95
2021/01/17 09:37:12;;;;;;;35.80;30.77;;;1.20;99.90;;;;;;5053572;28;20642;-94
2021/01/17 09:39:42;;;;;;;33.50;28.40;;;1.20;99.90;;;;;;5041776;28;20726;-95
2021/01/17 09:42:11;;;;;;;33.33;28.83;;;1.10;99.90;;;;;;5037044;28;21214;-94
2021/01/17 09:44:40;;;;;;;30.00;26.30;;;1.10;99.90;;;;;;5040740;28;20732;-94
2021/01/17 09:47:20;;;;;;;28.67;25.37;;;1.20;99.90;;;;;;5042487;28;20673;-95
2021/01/17 09:49:47;;;;;;;31.23;26.03;;;1.10;99.90;;;;;;5043608;28;20689;-94
2021/01/17 09:52:22;;;;;;;30.80;26.47;;;1.10;99.90;;;;;;5041054;28;20640;-94
2021/01/17 09:54:51;;;;;;;28.50;24.80;;;1.20;99.90;;;;;;5047683;28;20746;-94
2021/01/17 09:57:20;;;;;;;30.97;26.67;;;1.50;99.90;;;;;;5033320;28;20631;-93
2021/01/17 10:00:01;;;;;;;28.43;25.10;;;1.40;99.90;;;;;;5053224;28;20633;-94
2021/01/17 10:02:30;;;;;;;30.97;25.90;;;1.70;99.90;;;;;;5025466;28;20651;-94
2021/01/17 10:04:57;;;;;;;34.07;28.27;;;1.40;99.90;;;;;;5032816;28;20707;-94
2021/01/17 10:07:25;;;;;;;27.77;24.77;;;1.90;99.90;;;;;;5032957;28;20635;-93
2021/01/17 10:09:53;;;;;;;28.03;23.93;;;1.50;99.90;;;;;;5034017;28;20668;-92
2021/01/17 10:12:21;;;;;;;31.60;26.00;;;1.50;99.90;;;;;;5036476;28;20644;-89
2021/01/17 10:14:50;;;;;;;29.07;25.77;;;1.50;99.90;;;;;;5048005;28;20714;-93
2021/01/17 10:17:18;;;;;;;31.07;27.73;;;1.60;99.90;;;;;;5050542;28;20695;-91
2021/01/17 10:19:46;;;;;;;41.93;34.30;;;1.60;99.90;;;;;;5034721;28;20628;-92
2021/01/17 10:22:15;;;;;;;52.30;43.37;;;2.10;99.90;;;;;;5028216;28;20632;-91
2021/01/17 10:24:42;;;;;;;64.37;47.37;;;1.80;99.90;;;;;;5026666;28;20678;-91
2021/01/17 10:27:13;;;;;;;86.73;57.60;;;1.50;99.90;;;;;;5029708;28;21233;-91
2021/01/17 10:29:50;;;;;;;51.47;39.97;;;1.50;99.90;;;;;;5028890;28;20775;-91
2021/01/17 10:32:18;;;;;;;42.87;36.10;;;1.60;99.90;;;;;;5028542;28;20644;-92
2021/01/17 10:34:46;;;;;;;35.03;26.03;;;1.70;99.90;;;;;;5022562;28;20767;-93
2021/01/17 10:37:15;;;;;;;28.53;25.50;;;1.70;99.90;;;;;;5030180;28;20645;-91
2021/01/17 10:39:42;;;;;;;33.13;27.50;;;1.80;99.90;;;;;;5031365;28;20644;-93
2021/01/17 10:42:13;;;;;;;28.47;25.37;;;1.70;99.90;;;;;;5037160;28;20629;-92
2021/01/17 10:44:50;;;;;;;32.37;28.87;;;1.80;99.90;;;;;;5051844;28;20666;-92
2021/01/17 10:47:32;;;;;;;32.73;26.97;;;1.90;99.90;;;;;;5041944;28;20624;-92
2021/01/17 10:50:06;;;;;;;29.60;26.13;;;2.00;99.90;;;;;;5033162;28;20721;-91
2021/01/17 10:52:38;;;;;;;31.63;28.20;;;1.90;99.90;;;;;;5024654;28;20649;-91
2021/01/17 10:55:12;;;;;;;31.73;28.40;;;1.80;99.90;;;;;;5030636;28;20725;-91
2021/01/17 10:57:41;;;;;;;34.07;28.40;;;1.80;99.90;;;;;;5032747;28;20622;-92
2021/01/17 11:00:10;;;;;;;30.63;27.33;;;2.00;99.90;;;;;;5030727;28;20629;-92
2021/01/17 11:02:36;;;;;;;31.77;28.03;;;1.80;99.90;;;;;;5033054;28;20653;-92
2021/01/17 11:05:07;;;;;;;30.33;26.97;;;1.80;99.90;;;;;;5031455;28;20677;-92
2021/01/17 11:07:34;;;;;;;30.17;26.93;;;1.80;99.90;;;;;;5031660;28;20664;-92
2021/01/17 11:10:16;;;;;;;36.33;31.60;;;1.90;99.90;;;;;;5034992;28;20665;-92
2021/01/17 11:12:42;;;;;;;32.03;28.47;;;2.00;99.90;;;;;;5019971;28;20654;-92
2021/01/17 11:15:14;;;;;;;36.80;31.90;;;1.80;99.90;;;;;;5027673;28;20687;-92
2021/01/17 11:17:51;;;;;;;37.53;32.03;;;2.00;99.90;;;;;;5027838;28;20626;-92
2021/01/17 11:20:18;;;;;;;31.40;28.10;;;2.10;99.90;;;;;;5027850;28;20658;-93
2021/01/17 11:22:46;;;;;;;35.93;30.93;;;2.00;99.90;;;;;;5028665;28;20992;-92
2021/01/17 11:25:21;;;;;;;31.47;28.07;;;2.00;99.90;;;;;;5029611;28;21211;-93
2021/01/17 11:27:48;;;;;;;36.70;31.60;;;2.20;99.90;;;;;;5029606;28;20689;-93
2021/01/17 11:30:16;;;;;;;31.90;28.47;;;2.20;99.90;;;;;;5029158;28;20675;-93
2021/01/17 11:32:45;;;;;;;33.37;29.20;;;2.00;99.90;;;;;;5024957;28;20671;-93
2021/01/17 11:35:25;;;;;;;32.10;28.70;;;2.00;99.90;;;;;;5029728;28;20675;-93
2021/01/17 11:37:53;;;;;;;34.00;30.47;;;2.00;99.90;;;;;;5028479;28;20646;-93
2021/01/17 11:40:28;;;;;;;32.43;29.03;;;2.80;99.90;;;;;;5027022;28;20642;-93
2021/01/17 11:43:08;;;;;;;28.17;24.97;;;2.30;99.90;;;;;;5021977;28;20668;-93
2021/01/17 11:45:42;;;;;;;30.33;27.00;;;2.20;99.90;;;;;;5021614;28;20676;-94
2021/01/17 11:48:13;;;;;;;29.50;23.70;;;2.20;99.90;;;;;;5024518;28;20740;-93
2021/01/17 11:50:46;;;;;;;32.70;27.07;;;2.20;99.90;;;;;;5026213;28;20678;-92
2021/01/17 11:53:13;;;;;;;29.73;25.90;;;2.20;99.90;;;;;;5027146;28;20645;-91
2021/01/17 11:55:48;;;;;;;29.03;23.80;;;2.30;99.90;;;;;;5029726;28;20663;-92
2021/01/17 11:58:16;;;;;;;32.00;26.50;;;2.30;99.90;;;;;;5026055;28;20755;-94
2021/01/17 12:00:53;;;;;;;32.27;26.90;;;2.30;99.90;;;;;;5039689;28;20644;-93
2021/01/17 12:03:26;;;;;;;30.00;24.57;;;2.20;99.90;;;;;;5034791;28;20652;-94
2021/01/17 12:06:05;;;;;;;28.40;24.23;;;2.20;99.90;;;;;;5022378;28;20688;-93
2021/01/17 12:08:50;;;;;;;26.70;23.80;;;2.10;99.90;;;;;;5029365;28;20741;-93
2021/01/17 12:11:39;;;;;;;26.37;23.47;;;2.20;99.90;;;;;;5023097;28;20657;-93
2021/01/17 12:14:11;;;;;;;30.40;25.50;;;2.10;99.90;;;;;;5023399;28;20645;-93
2021/01/17 12:16:45;;;;;;;28.10;23.03;;;2.00;99.90;;;;;;5030153;28;20700;-94
2021/01/17 12:19:13;;;;;;;33.43;25.13;;;2.00;99.90;;;;;;5025307;28;20656;-93
2021/01/17 12:21:41;;;;;;;27.97;23.73;;;2.10;99.90;;;;;;5029290;28;20736;-94
2021/01/17 12:24:16;;;;;;;30.10;24.83;;;2.10;99.90;;;;;;5027474;28;20642;-93
2021/01/17 12:26:46;;;;;;;28.27;24.00;;;2.10;99.90;;;;;;5045802;28;20661;-94
2021/01/17 12:31:49;;;;;;;30.53;24.93;;;2.10;99.90;;;;;;5066306;22;20673;-93
2021/01/17 12:34:16;;;;;;;29.57;24.67;;;2.10;99.90;;;;;;5053626;28;20632;-93
2021/01/17 12:36:44;;;;;;;30.23;24.27;;;2.10;99.90;;;;;;5061324;28;20721;-94
2021/01/17 12:39:12;;;;;;;25.17;22.47;;;2.20;99.90;;;;;;5057418;28;20721;-94
2021/01/17 12:41:43;;;;;;;25.70;23.00;;;2.20;99.90;;;;;;5053836;28;20724;-95
2021/01/17 12:44:11;;;;;;;26.60;23.53;;;2.90;99.90;;;;;;5042391;28;20982;-93
2021/01/17 12:46:37;;;;;;;30.83;22.80;;;2.30;99.90;;;;;;5050273;28;20733;-93
2021/01/17 12:49:10;;;;;;;25.00;21.37;;;2.10;99.90;;;;;;5045331;28;20979;-93
2021/01/17 12:51:37;;;;;;;24.30;21.73;;;2.50;99.90;;;;;;5048386;28;21281;-92
2021/01/17 12:54:05;;;;;;;19.27;16.30;;;2.30;99.90;;;;;;5042921;28;21057;-94
2021/01/17 12:56:32;;;;;;;17.57;15.40;;;2.30;99.90;;;;;;5046801;28;20650;-94
2021/01/17 12:59:01;;;;;;;17.00;14.77;;;2.40;99.90;;;;;;5029653;28;20644;-94
2021/01/17 13:01:30;;;;;;;17.00;15.13;;;2.40;99.90;;;;;;5044637;28;21731;-93